createdAt,value
2019-01-28T00:04:20.207Z,6.47
2019-01-28T00:07:09.000Z,6.36
2019-01-28T00:09:57.883Z,6.30
2019-01-28T00:12:46.738Z,6.05
2019-01-28T00:17:48.712Z,6.00
2019-01-28T00:20:37.501Z,6.31
2019-01-28T00:23:26.305Z,6.37
2019-01-28T00:26:15.103Z,6.37
2019-01-28T00:32:32.662Z,4.87
2019-01-28T00:35:21.521Z,4.47
2019-01-28T00:38:10.336Z,6.17
2019-01-28T00:40:59.143Z,5.78
2019-01-28T00:43:41.021Z,5.32
2019-01-28T00:46:29.827Z,6.40
2019-01-28T00:49:18.618Z,6.27
2019-01-28T00:55:01.826Z,6.27
2019-01-28T00:57:50.632Z,6.40
2019-01-28T01:00:39.487Z,6.53
2019-01-28T01:03:28.305Z,6.38
2019-01-28T01:09:24.907Z,6.07
2019-01-28T01:12:13.696Z,6.05
2019-01-28T01:15:02.505Z,6.39
2019-01-28T01:17:51.294Z,5.39
2019-01-28T01:20:40.098Z,6.23
2019-01-28T01:23:28.886Z,6.11
2019-01-28T01:26:17.693Z,6.17
2019-01-28T01:29:06.493Z,6.13
2019-01-28T01:31:55.280Z,6.07
2019-01-28T01:34:44.082Z,5.92
2019-01-28T01:37:32.879Z,5.97
2019-01-28T01:40:21.693Z,6.01
2019-01-28T01:43:10.473Z,5.93
2019-01-28T01:45:51.757Z,6.07
2019-01-28T01:48:40.552Z,5.74
2019-01-28T01:51:29.372Z,5.98
2019-01-28T01:54:18.148Z,5.77
2019-01-28T01:57:06.963Z,6.08
2019-01-28T01:59:55.747Z,5.99
2019-01-28T02:02:44.557Z,4.33
2019-01-28T02:05:33.356Z,5.79
2019-01-28T02:08:22.160Z,4.51
2019-01-28T02:11:10.951Z,5.73
2019-01-28T02:13:59.755Z,5.76
2019-01-28T02:16:48.563Z,4.46
2019-01-28T02:19:37.349Z,5.74
2019-01-28T02:22:26.157Z,5.66
2019-01-28T02:25:34.705Z,5.80
2019-01-28T02:28:23.486Z,5.64
2019-01-28T02:31:12.291Z,3.94
2019-01-28T02:34:01.078Z,5.50
2019-01-28T02:36:49.903Z,3.99
2019-01-28T02:39:38.702Z,5.62
2019-01-28T02:42:27.499Z,5.51
2019-01-28T02:45:10.062Z,5.68
2019-01-28T02:47:58.855Z,5.72
2019-01-28T02:50:47.658Z,5.55
2019-01-28T02:53:36.452Z,5.88
2019-01-28T02:56:44.628Z,5.63
2019-01-28T02:59:33.406Z,5.92
2019-01-28T03:02:22.207Z,6.03
2019-01-28T03:05:11.079Z,6.03
2019-01-28T03:07:59.872Z,5.91
2019-01-28T03:10:48.680Z,5.86
2019-01-28T03:13:37.468Z,5.84
2019-01-28T03:16:26.272Z,5.77
2019-01-28T03:19:15.078Z,4.16
2019-01-28T03:22:03.865Z,5.74
2019-01-28T03:28:05.703Z,5.61
2019-01-28T03:30:54.521Z,5.72
2019-01-28T03:33:43.311Z,5.69
2019-01-28T03:36:32.095Z,4.31
2019-01-28T03:39:20.929Z,5.87
2019-01-28T03:42:09.879Z,4.56
2019-01-28T03:44:51.379Z,5.60
2019-01-28T03:47:40.192Z,5.84
2019-01-28T03:50:28.993Z,5.70
2019-01-28T03:53:17.779Z,5.78
2019-01-28T03:56:06.828Z,5.76
2019-01-28T03:58:55.618Z,4.70
2019-01-28T04:01:44.509Z,5.83
2019-01-28T04:04:33.305Z,4.03
2019-01-28T04:07:22.131Z,5.96
2019-01-28T04:10:30.236Z,5.97
2019-01-28T04:13:19.043Z,5.84
2019-01-28T04:16:07.899Z,5.77
2019-01-28T04:18:56.708Z,4.24
2019-01-28T04:21:45.489Z,5.66
2019-01-28T04:24:34.295Z,5.73
2019-01-28T04:27:23.094Z,5.62
2019-01-28T04:30:31.478Z,5.71
2019-01-28T04:33:20.330Z,5.57
2019-01-28T04:36:09.130Z,5.19
2019-01-28T04:38:57.920Z,4.14
2019-01-28T04:41:46.719Z,5.54
2019-01-28T04:44:35.535Z,4.36
2019-01-28T04:47:17.416Z,5.73
2019-01-28T04:50:27.114Z,5.66
2019-01-28T04:53:15.912Z,5.62
2019-01-28T04:56:04.776Z,5.57
2019-01-28T04:58:53.575Z,5.58
2019-01-28T05:01:42.365Z,5.46
2019-01-28T05:04:31.164Z,5.67
2019-01-28T05:07:19.946Z,5.44
2019-01-28T05:10:29.660Z,5.57
2019-01-28T05:13:18.453Z,5.66
2019-01-28T05:16:07.521Z,5.69
2019-01-28T05:18:56.309Z,4.35
2019-01-28T05:21:45.111Z,3.95
2019-01-28T05:24:33.915Z,5.58
2019-01-28T05:27:22.723Z,5.60
2019-01-28T05:30:32.426Z,5.65
2019-01-28T05:33:21.230Z,4.28
2019-01-28T05:36:10.014Z,5.80
2019-01-28T05:38:58.820Z,6.03
2019-01-28T05:41:47.596Z,5.78
2019-01-28T05:44:36.402Z,5.69
2019-01-28T05:47:25.188Z,5.72
2019-01-28T05:50:34.898Z,5.60
2019-01-28T05:53:23.697Z,5.69
2019-01-28T05:56:12.491Z,5.56
2019-01-28T05:59:01.570Z,5.64
2019-01-28T06:01:50.375Z,4.29
2019-01-28T06:04:39.183Z,5.44
2019-01-28T06:07:27.970Z,5.51
2019-01-28T06:10:17.045Z,4.19
2019-01-28T06:13:05.898Z,5.63
2019-01-28T06:15:54.705Z,5.60
2019-01-28T06:18:43.512Z,5.47
2019-01-28T06:21:32.298Z,5.52
2019-01-28T06:24:21.107Z,5.67
2019-01-28T06:27:09.919Z,5.74
2019-01-28T06:29:58.696Z,5.73
2019-01-28T06:32:47.488Z,5.85
2019-01-28T06:35:36.294Z,4.16
2019-01-28T06:38:25.070Z,5.63
2019-01-28T06:41:13.892Z,5.39
2019-01-28T06:43:55.726Z,4.20
2019-01-28T06:46:44.523Z,5.69
2019-01-28T06:49:33.328Z,4.16
2019-01-28T06:52:22.116Z,5.73
2019-01-28T06:55:11.402Z,5.52
2019-01-28T06:58:00.190Z,4.15
2019-01-28T07:00:48.999Z,4.72
2019-01-28T07:03:37.803Z,5.48
2019-01-28T07:06:26.589Z,4.08
2019-01-28T07:09:15.394Z,5.61
2019-01-28T07:12:04.249Z,5.72
2019-01-28T07:17:54.719Z,5.70
2019-01-28T07:20:38.411Z,4.71
2019-01-28T07:23:27.201Z,5.64
2019-01-28T07:26:16.003Z,5.70
2019-01-28T07:29:04.790Z,5.76
2019-01-28T07:31:53.590Z,5.64
2019-01-28T07:34:42.378Z,5.69
2019-01-28T07:37:31.179Z,5.77
2019-01-28T07:40:13.794Z,5.94
2019-01-28T07:43:02.581Z,5.93
2019-01-28T07:45:51.379Z,5.79
2019-01-28T07:48:40.182Z,4.54
2019-01-28T07:51:28.967Z,5.89
2019-01-28T07:54:17.768Z,5.88
2019-01-28T07:57:06.584Z,6.11
2019-01-28T07:59:55.353Z,6.15
2019-01-28T08:02:44.138Z,5.95
2019-01-28T08:05:33.012Z,6.08
2019-01-28T08:08:21.816Z,6.10
2019-01-28T08:11:10.595Z,5.96
2019-01-28T08:13:59.392Z,6.02
2019-01-28T08:17:07.212Z,6.07
2019-01-28T08:19:56.013Z,5.77
2019-01-28T08:23:03.900Z,5.86
2019-01-28T08:25:52.710Z,5.87
2019-01-28T08:28:41.494Z,5.92
2019-01-28T08:31:30.291Z,6.00
2019-01-28T08:34:19.100Z,6.02
2019-01-28T08:37:07.888Z,5.94
2019-01-28T08:39:56.690Z,6.09
2019-01-28T08:42:45.571Z,5.99
2019-01-28T08:45:34.669Z,5.86
2019-01-28T08:48:23.474Z,6.06
2019-01-28T08:51:31.280Z,5.85
2019-01-28T08:54:20.090Z,6.05
2019-01-28T08:57:08.887Z,6.08
2019-01-28T08:59:57.694Z,4.59
2019-01-28T09:02:46.558Z,6.24
2019-01-28T09:05:35.434Z,6.33
2019-01-28T09:11:32.046Z,5.17
2019-01-28T09:14:21.018Z,5.57
2019-01-28T09:17:09.804Z,6.43
2019-01-28T09:19:59.048Z,6.41
2019-01-28T09:22:49.130Z,6.56
2019-01-28T09:25:37.914Z,6.48
2019-01-28T09:28:26.723Z,6.33
2019-01-28T09:31:15.502Z,6.51
2019-01-28T09:34:23.399Z,6.53
2019-01-28T09:37:12.184Z,6.81
2019-01-28T09:40:00.987Z,7.09
2019-01-28T09:42:49.841Z,6.44
2019-01-28T09:45:57.964Z,7.26
2019-01-28T09:48:46.777Z,7.22
2019-01-28T09:51:35.559Z,7.07
2019-01-28T09:54:24.368Z,7.15
2019-01-28T09:57:13.158Z,7.00
2019-01-28T10:00:02.037Z,6.97
2019-01-28T10:02:50.822Z,6.41
2019-01-28T10:05:39.686Z,6.92
2019-01-28T10:08:28.476Z,6.95
2019-01-28T10:11:17.269Z,6.80
2019-01-28T10:14:06.127Z,6.03
2019-01-28T10:16:54.921Z,6.83
2019-01-28T10:19:43.706Z,6.83
2019-01-28T10:22:51.531Z,6.68
2019-01-28T10:25:40.656Z,6.46
2019-01-28T10:28:29.534Z,6.80
2019-01-28T10:31:18.340Z,6.83
2019-01-28T10:34:07.152Z,6.56
2019-01-28T10:36:55.929Z,6.56
2019-01-28T10:39:44.732Z,6.73
2019-01-28T10:42:28.521Z,6.68
2019-01-28T10:45:17.589Z,5.49
2019-01-28T10:51:35.161Z,7.08
2019-01-28T10:54:23.953Z,7.09
2019-01-28T10:57:12.750Z,6.90
2019-01-28T11:00:01.568Z,6.86
2019-01-28T11:06:05.639Z,6.88
2019-01-28T11:08:54.377Z,6.69
2019-01-28T11:11:43.201Z,6.65
2019-01-28T11:14:31.980Z,6.82
2019-01-28T11:17:20.977Z,6.84
2019-01-28T11:20:30.840Z,6.22
2019-01-28T11:26:36.279Z,7.22
2019-01-28T11:29:25.207Z,7.06
2019-01-28T11:35:42.520Z,6.90
2019-01-28T11:38:31.403Z,6.70
2019-01-28T11:41:20.302Z,6.78
2019-01-28T11:44:10.804Z,5.09
2019-01-28T11:47:01.297Z,6.53
2019-01-28T11:49:50.177Z,6.40
2019-01-28T11:52:38.965Z,6.56
2019-01-28T11:55:27.741Z,6.36
2019-01-28T11:58:16.903Z,6.54
2019-01-28T12:01:24.890Z,6.58
2019-01-28T12:04:13.739Z,6.70
2019-01-28T12:07:02.646Z,7.05
2019-01-28T12:09:51.515Z,6.44
2019-01-28T12:12:40.342Z,7.27
2019-01-28T12:15:29.295Z,7.47
2019-01-28T12:18:37.169Z,7.44
2019-01-28T12:21:26.241Z,7.72
2019-01-28T12:24:15.029Z,6.74
2019-01-28T12:27:03.848Z,7.85
2019-01-28T12:29:52.650Z,7.84
2019-01-28T12:32:41.460Z,6.41
2019-01-28T12:35:30.268Z,7.97
2019-01-28T12:38:19.055Z,5.88
2019-01-28T12:41:07.847Z,7.23
2019-01-28T12:43:49.343Z,7.35
2019-01-28T12:46:57.173Z,6.47
2019-01-28T12:49:45.965Z,7.63
2019-01-28T12:52:34.843Z,8.31
2019-01-28T12:58:52.723Z,7.42
2019-01-28T13:01:41.681Z,8.81
2019-01-28T13:04:30.495Z,7.86
2019-01-28T13:07:19.280Z,8.61
2019-01-28T13:10:28.991Z,7.83
2019-01-28T13:13:17.843Z,7.45
2019-01-28T13:16:25.812Z,7.60
2019-01-28T13:19:14.604Z,7.91
2019-01-28T13:22:03.483Z,6.98
2019-01-28T13:24:52.270Z,8.34
2019-01-28T13:27:41.202Z,8.08
2019-01-28T13:30:50.956Z,7.09
2019-01-28T13:33:39.837Z,8.57
2019-01-28T13:39:24.131Z,5.19
2019-01-28T13:42:32.572Z,5.81
2019-01-28T13:45:15.236Z,4.36
2019-01-28T13:51:19.092Z,6.52
2019-01-28T13:54:07.906Z,5.50
2019-01-28T13:56:56.692Z,6.96
2019-01-28T13:59:45.507Z,7.43
2019-01-28T14:02:34.804Z,6.98
2019-01-28T14:08:39.223Z,7.52
2019-01-28T14:11:28.028Z,6.22
2019-01-28T14:17:24.571Z,6.93
2019-01-28T14:20:33.852Z,7.97
2019-01-28T14:23:24.092Z,6.63
2019-01-28T14:26:13.169Z,8.15
2019-01-28T14:28:55.148Z,7.94
2019-01-28T14:31:43.931Z,6.95
2019-01-28T14:34:32.739Z,8.64
2019-01-28T14:37:21.533Z,7.38
2019-01-28T14:40:31.247Z,8.28
2019-01-28T14:43:20.086Z,7.92
2019-01-28T14:46:02.075Z,8.63
2019-01-28T14:48:50.873Z,8.32
2019-01-28T14:51:39.677Z,8.06
2019-01-28T14:54:28.476Z,8.03
2019-01-28T14:57:36.296Z,7.41
2019-01-28T15:00:46.008Z,8.78
2019-01-28T15:03:34.808Z,8.84
2019-01-28T15:06:23.906Z,9.11
2019-01-28T15:09:12.762Z,8.79
2019-01-28T15:14:55.698Z,9.05
2019-01-28T15:17:44.482Z,8.64
2019-01-28T15:20:33.289Z,7.69
2019-01-28T15:23:22.068Z,7.95
2019-01-28T15:26:10.896Z,8.05
2019-01-28T15:28:52.857Z,8.05
2019-01-28T15:31:41.664Z,7.70
2019-01-28T15:34:30.507Z,8.06
2019-01-28T15:37:19.352Z,7.94
2019-01-28T15:40:29.065Z,6.71
2019-01-28T15:43:17.847Z,7.75
2019-01-28T15:46:06.663Z,7.60
2019-01-28T15:48:55.445Z,7.43
2019-01-28T15:52:03.282Z,7.13
2019-01-28T15:54:52.075Z,6.97
2019-01-28T15:57:41.175Z,7.00
2019-01-28T16:00:49.272Z,5.40
2019-01-28T16:03:38.173Z,6.46
2019-01-28T16:06:26.943Z,4.69
2019-01-28T16:09:15.748Z,5.83
2019-01-28T16:12:04.623Z,5.84
2019-01-28T16:14:53.415Z,5.17
2019-01-28T16:17:42.210Z,5.62
2019-01-28T16:20:30.994Z,6.20
2019-01-28T16:23:19.801Z,5.60
2019-01-28T16:26:08.578Z,5.03
2019-01-28T16:28:57.399Z,5.69
2019-01-28T16:31:39.213Z,4.51
2019-01-28T16:37:22.724Z,5.50
2019-01-28T16:40:32.446Z,5.53
2019-01-28T16:43:21.253Z,5.20
2019-01-28T16:46:29.092Z,5.56
2019-01-28T16:49:17.926Z,5.48
2019-01-28T16:52:06.877Z,5.29
2019-01-28T16:54:55.749Z,5.65
2019-01-28T16:57:44.707Z,5.11
2019-01-28T17:00:54.446Z,5.05
2019-01-28T17:03:43.247Z,5.31
2019-01-28T17:06:32.065Z,4.98
2019-01-28T17:09:20.873Z,5.38
2019-01-28T17:12:09.696Z,5.59
2019-01-28T17:14:58.506Z,4.29
2019-01-28T17:17:47.338Z,5.75
2019-01-28T17:20:36.145Z,5.36
2019-01-28T17:23:24.962Z,5.35
2019-01-28T17:26:13.786Z,4.75
2019-01-28T17:29:02.621Z,5.07
2019-01-28T17:31:51.466Z,5.42
2019-01-28T17:34:40.269Z,5.24
2019-01-28T17:37:29.139Z,4.92
2019-01-28T17:40:38.869Z,5.06
2019-01-28T17:43:27.715Z,5.06
2019-01-28T17:46:16.554Z,5.27
2019-01-28T17:49:05.445Z,5.43
2019-01-28T17:51:54.235Z,5.46
2019-01-28T17:54:43.063Z,5.42
2019-01-28T17:57:31.863Z,4.52
2019-01-28T18:03:37.257Z,5.02
2019-01-28T18:06:26.050Z,5.50
2019-01-28T18:09:14.874Z,5.44
2019-01-28T18:12:03.691Z,5.45
2019-01-28T18:14:52.514Z,5.59
2019-01-28T18:17:41.342Z,5.44
2019-01-28T18:20:30.136Z,5.48
2019-01-28T18:26:07.955Z,5.04
2019-01-28T18:28:56.768Z,4.80
2019-01-28T18:31:45.616Z,5.13
2019-01-28T18:34:34.412Z,5.06
2019-01-28T18:37:23.192Z,3.65
2019-01-28T18:40:32.929Z,5.06
2019-01-28T18:43:21.713Z,4.78
2019-01-28T18:46:10.512Z,4.83
2019-01-28T18:48:59.303Z,5.04
2019-01-28T18:51:48.103Z,5.20
2019-01-28T18:54:36.901Z,5.32
2019-01-28T18:57:26.025Z,3.91
2019-01-28T19:00:34.769Z,5.40
2019-01-28T19:03:23.560Z,5.37
2019-01-28T19:12:36.625Z,5.07
2019-01-28T19:24:16.523Z,5.06
2019-01-28T19:26:58.757Z,5.39
2019-01-28T19:29:48.279Z,4.88
2019-01-28T19:32:37.355Z,4.14
2019-01-28T19:35:26.793Z,4.79
2019-01-28T19:41:23.857Z,4.83
2019-01-28T19:44:12.858Z,3.57
2019-01-28T19:47:02.214Z,5.29
2019-01-28T19:50:12.085Z,5.07
2019-01-28T19:56:16.315Z,5.11
2019-01-28T19:59:24.673Z,4.76
2019-01-28T20:09:15.839Z,4.83
2019-01-28T20:12:14.482Z,4.58
2019-01-28T20:18:19.520Z,4.54
2019-01-28T20:27:58.674Z,4.54
2019-01-28T20:34:43.273Z,4.51
2019-01-28T20:38:00.234Z,4.71
2019-01-28T20:40:58.790Z,4.42
2019-01-28T20:44:08.009Z,4.36
2019-01-28T20:50:49.830Z,4.63
2019-01-28T20:53:58.077Z,4.22
2019-01-28T21:00:26.732Z,4.54
2019-01-28T21:06:19.189Z,3.14
2019-01-28T21:12:30.501Z,5.13
2019-01-28T21:18:48.735Z,5.25
2019-01-28T21:21:41.915Z,4.50
2019-01-28T21:24:28.663Z,4.83
2019-01-28T21:27:17.608Z,4.96
2019-01-28T21:30:27.362Z,4.95
2019-01-28T21:33:16.157Z,5.19
2019-01-28T21:39:14.584Z,4.89
2019-01-28T21:42:03.369Z,4.33
2019-01-28T21:44:52.188Z,4.50
2019-01-28T21:50:50.386Z,5.00
2019-01-28T21:53:39.181Z,5.20
2019-01-28T21:56:27.982Z,3.71
2019-01-28T21:59:16.775Z,5.28
2019-01-28T22:01:58.589Z,5.69
2019-01-28T22:04:47.388Z,5.23
2019-01-28T22:07:36.657Z,5.24
2019-01-28T22:10:25.439Z,4.06
2019-01-28T22:13:14.294Z,4.16
2019-01-28T22:16:03.126Z,5.84
2019-01-28T22:18:51.944Z,5.62
2019-01-28T22:21:40.754Z,4.97
2019-01-28T22:24:29.543Z,5.52
2019-01-28T22:27:18.346Z,5.00
2019-01-28T22:30:28.052Z,5.47
2019-01-28T22:33:16.857Z,5.53
2019-01-28T22:36:05.810Z,5.58
2019-01-28T22:38:54.615Z,4.94
2019-01-28T22:41:43.400Z,5.70
2019-01-28T22:44:32.523Z,5.77
2019-01-28T22:47:21.306Z,5.58
2019-01-28T22:50:29.439Z,5.23
2019-01-28T22:53:18.239Z,5.60
2019-01-28T22:56:07.028Z,5.64
2019-01-28T22:58:55.853Z,5.85
2019-01-28T23:01:37.658Z,5.67
2019-01-28T23:04:26.463Z,3.94
2019-01-28T23:07:15.258Z,5.74
2019-01-28T23:10:24.968Z,5.43
2019-01-28T23:16:21.893Z,5.58
2019-01-28T23:19:10.674Z,5.40
2019-01-28T23:21:59.474Z,5.51
2019-01-28T23:24:48.265Z,5.49
2019-01-28T23:27:37.072Z,5.40
2019-01-28T23:30:25.861Z,5.26
2019-01-28T23:33:14.728Z,5.45
2019-01-28T23:36:03.516Z,5.61
2019-01-28T23:38:52.389Z,5.11
2019-01-28T23:41:41.281Z,5.11
2019-01-28T23:44:30.157Z,5.37
2019-01-28T23:47:18.939Z,5.03
2019-01-28T23:50:28.659Z,4.60
2019-01-28T23:53:17.448Z,5.04
2019-01-28T23:59:21.266Z,4.94
